Time;durP1;ratioP1;P1;durP2;ratioP2;P2;SDS_P1;SDS_P2;PMS_P1;PMS_P2;Temp;Humidity;BMP_temperature;BMP_pressure;BME280_temperature;BME280_humidity;BME280_pressure;Samples;Min_cycle;Max_cycle;Signal;HPM_P1;HPM_P2
2022/09/23 10:50:48;;;;;;;0.70;0.30;;;;;;;15.66;56.03;101054.53;5149257;28;20050;-82
2022/09/23 10:53:25;;;;;;;0.20;0.20;;;;;;;15.69;55.71;101049.97;5138722;28;20078;-84
2022/09/23 10:56:01;;;;;;;0.25;0.25;;;;;;;15.74;55.38;101049.78;5128295;28;20030;-82
2022/09/23 10:59:01;;;;;;;0.45;0.45;;;;;;;15.83;53.94;101051.16;5118924;28;20368;-82
2022/09/23 11:02:10;;;;;;;0.20;0.20;;;;;;;15.78;54.92;101050.50;5127834;28;20045;-81
2022/09/23 11:04:46;;;;;;;0.43;0.43;;;;;;;15.84;55.49;101043.19;5126928;28;20047;-82
2022/09/23 11:07:26;;;;;;;0.25;0.25;;;;;;;15.93;54.99;101054.31;5134513;28;20042;-83
2022/09/23 11:10:34;;;;;;;0.30;0.30;;;;;;;16.01;54.35;101052.19;5118438;28;20048;-81
2022/09/23 11:13:37;;;;;;;0.47;0.45;;;;;;;16.03;54.21;101045.88;5132130;28;20581;-83
2022/09/23 11:16:07;;;;;;;0.55;0.40;;;;;;;16.04;55.48;101050.25;5121495;28;20408;-80
2022/09/23 11:19:06;;;;;;;0.30;0.30;;;;;;;16.16;54.69;101037.38;5109353;28;20042;-82
2022/09/23 11:21:40;;;;;;;0.30;0.30;;;;;;;16.30;53.83;101039.38;5130153;28;20583;-82
2022/09/23 11:24:22;;;;;;;0.30;0.30;;;;;;;16.47;52.95;101038.63;5124159;28;20054;-81
2022/09/23 11:27:11;;;;;;;0.55;0.55;;;;;;;16.53;53.79;101035.69;5123662;28;20459;-80
2022/09/23 11:30:05;;;;;;;0.63;0.63;;;;;;;16.56;53.70;101030.25;5126191;28;20402;-83
2022/09/23 11:32:43;;;;;;;;;;;;;;;16.57;54.24;101026.63;5154733;28;20038;-80
2022/09/23 11:35:28;;;;;;;0.20;0.20;;;;;;;16.65;54.96;101026.28;5158643;28;19910;-82
2022/09/23 11:38:10;;;;;;;1.90;0.30;;;;;;;16.73;55.47;101026.78;5140037;28;20054;-79
2022/09/23 11:40:45;;;;;;;0.60;0.60;;;;;;;16.84;55.52;101018.31;5140407;28;20018;-80
2022/09/23 11:43:22;;;;;;;1.52;0.68;;;;;;;17.04;53.87;101012.06;5149787;28;20340;-80
2022/09/23 11:46:01;;;;;;;0.85;0.85;;;;;;;17.03;55.04;101004.19;5153312;28;20034;-80
2022/09/23 11:48:38;;;;;;;0.30;0.30;;;;;;;17.20;52.24;101014.81;5138407;28;20225;-81
2022/09/23 11:51:36;;;;;;;0.50;0.50;;;;;;;17.27;53.08;101008.25;5121435;28;20118;-82
2022/09/23 11:54:25;;;;;;;0.30;0.30;;;;;;;17.25;54.19;101010.13;5156384;28;20066;-81
2022/09/23 11:57:02;;;;;;;0.35;0.35;;;;;;;17.33;54.93;100999.13;5157983;28;20027;-83
2022/09/23 11:59:50;;;;;;;0.90;0.88;;;;;;;17.40;54.79;100999.66;5148072;28;20050;-82
2022/09/23 12:02:32;;;;;;;2.08;0.82;;;;;;;17.47;54.99;100995.78;5120741;28;20031;-83
2022/09/23 12:05:09;;;;;;;0.30;0.30;;;;;;;17.52;53.98;100993.75;5124770;28;20035;-82
2022/09/23 12:07:52;;;;;;;0.55;0.43;;;;;;;17.54;53.20;100994.53;5137433;28;20117;-82
2022/09/23 12:10:37;;;;;;;0.30;0.30;;;;;;;17.58;53.45;100988.09;5126992;28;20046;-82
2022/09/23 12:13:21;;;;;;;0.20;0.20;;;;;;;17.60;51.14;100998.66;5126903;28;20065;-81
2022/09/23 12:16:30;;;;;;;0.45;0.45;;;;;;;17.66;52.27;100992.16;5124178;28;20118;-83
2022/09/23 12:19:04;;;;;;;0.30;0.30;;;;;;;17.67;51.02;100996.53;5125104;28;20050;-84
2022/09/23 12:21:50;;;;;;;0.50;0.50;;;;;;;17.75;52.30;100984.56;5116724;28;20038;-84
2022/09/23 12:24:43;;;;;;;1.08;0.40;;;;;;;17.80;51.74;100986.13;5103693;28;20050;-85
2022/09/23 12:27:27;;;;;;;0.30;0.30;;;;;;;17.79;50.92;100990.59;5125683;28;20452;-83
2022/09/23 12:30:02;;;;;;;0.85;0.38;;;;;;;17.84;51.31;100985.88;5115722;28;20043;-82
2022/09/23 12:32:33;;;;;;;0.22;0.22;;;;;;;17.87;52.41;100982.19;5113277;28;20182;-83
2022/09/23 12:35:04;;;;;;;0.45;0.45;;;;;;;17.83;52.37;100983.31;5122488;28;20114;-84
2022/09/23 12:37:37;;;;;;;0.22;0.22;;;;;;;17.85;52.21;100981.44;5108915;28;20515;-82
2022/09/23 12:40:15;;;;;;;;;;;;;;;17.84;48.50;100972.59;5115344;28;20451;-82
2022/09/23 12:42:47;;;;;;;1.33;1.23;;;;;;;17.80;47.52;100981.69;5139355;28;20404;-81
2022/09/23 12:45:33;;;;;;;0.20;0.20;;;;;;;17.83;49.85;100973.53;5119809;28;20153;-82
2022/09/23 12:48:42;;;;;;;0.10;0.10;;;;;;;17.83;48.30;100973.53;5140759;28;20801;-82
2022/09/23 12:51:15;;;;;;;0.40;0.40;;;;;;;17.84;47.51;100974.41;5123103;28;20715;-83
2022/09/23 12:53:46;;;;;;;0.20;0.20;;;;;;;17.80;49.77;100981.69;5135336;28;20113;-81
2022/09/23 12:56:18;;;;;;;0.65;0.57;;;;;;;17.73;49.09;100967.88;5124206;28;20030;-81
2022/09/23 12:58:49;;;;;;;0.55;0.55;;;;;;;17.80;49.08;100965.75;5145108;28;20042;-82
2022/09/23 13:01:23;;;;;;;0.30;0.30;;;;;;;17.78;48.44;100970.28;5135694;28;20051;-81
2022/09/23 13:06:55;;;;;;;0.30;0.30;;;;;;;17.56;47.13;100973.22;5130907;28;20100;-82
2022/09/23 13:09:29;;;;;;;0.22;0.22;;;;;;;17.42;45.06;100966.84;5120204;28;20053;-81
2022/09/23 13:12:04;;;;;;;0.88;0.43;;;;;;;17.46;45.89;100971.03;5139074;28;20038;-82
2022/09/23 13:14:36;;;;;;;0.98;0.98;;;;;;;17.40;45.86;100973.13;5152638;28;20043;-83
2022/09/23 13:17:22;;;;;;;1.40;1.30;;;;;;;17.52;47.09;100967.22;5126310;28;20270;-82
2022/09/23 13:20:02;;;;;;;1.55;0.95;;;;;;;17.49;47.08;100971.81;5139574;28;20093;-83
2022/09/23 13:22:48;;;;;;;6.43;0.93;;;;;;;17.38;46.23;100975.88;5123516;28;20042;-82
2022/09/23 13:25:21;;;;;;;0.50;0.50;;;;;;;17.40;46.58;100967.84;5125981;28;20053;-82
2022/09/23 13:27:55;;;;;;;0.30;0.30;;;;;;;17.41;47.05;100966.91;5128437;28;20481;-83
2022/09/23 13:30:26;;;;;;;0.20;0.20;;;;;;;17.44;47.90;100962.28;5115082;28;20038;-82
2022/09/23 13:33:53;;;;;;;0.20;0.20;;;;;;;17.43;47.13;100968.56;5164607;28;20065;-80
2022/09/23 13:36:24;;;;;;;3.30;1.38;;;;;;;17.42;46.72;100961.53;5033654;29;20033;-82
2022/09/23 13:39:14;;;;;;;0.30;0.30;;;;;;;17.39;45.99;100961.69;5122716;28;20279;-83
2022/09/23 13:41:45;;;;;;;0.40;0.40;;;;;;;17.36;46.75;100961.84;5127568;28;20034;-81
2022/09/23 13:44:18;;;;;;;0.30;0.30;;;;;;;17.36;47.91;100955.69;5129019;28;20049;-81
2022/09/23 13:46:56;;;;;;;0.20;0.20;;;;;;;17.37;48.27;100955.59;5117024;28;20044;-82
2022/09/23 13:49:31;;;;;;;0.30;0.30;;;;;;;17.41;48.87;100956.28;5144493;28;20357;-80
2022/09/23 13:52:02;;;;;;;0.40;0.40;;;;;;;17.42;48.21;100952.69;5126984;28;20065;-82
2022/09/23 13:54:45;;;;;;;0.22;0.22;;;;;;;17.42;48.10;100950.06;5132644;28;20039;-81
2022/09/23 13:57:31;;;;;;;0.20;0.20;;;;;;;17.44;47.81;100949.03;5157106;28;20066;-82
2022/09/23 14:00:16;;;;;;;11.68;1.70;;;;;;;17.50;48.52;100947.84;5161113;28;20268;-82
2022/09/23 14:02:47;;;;;;;0.40;0.40;;;;;;;17.48;48.94;100947.06;5120837;28;20448;-82
2022/09/23 14:05:23;;;;;;;0.30;0.30;;;;;;;17.50;48.17;100939.91;5122798;28;20366;-82
2022/09/23 14:07:55;;;;;;;0.20;0.20;;;;;;;17.54;48.89;100932.63;5151692;28;20046;-82
2022/09/23 14:10:26;;;;;;;0.35;0.35;;;;;;;17.46;48.18;100935.72;5123260;28;20266;-80
2022/09/23 14:12:58;;;;;;;0.30;0.30;;;;;;;17.43;48.68;100930.56;5147276;28;20060;-82
2022/09/23 14:15:29;;;;;;;0.20;0.20;;;;;;;17.46;48.22;100925.09;5169664;28;20104;-82
2022/09/23 14:18:05;;;;;;;0.40;0.40;;;;;;;17.39;46.83;100929.84;5146408;28;20041;-82
2022/09/23 14:20:45;;;;;;;0.20;0.20;;;;;;;17.36;47.01;100924.72;5135624;28;20102;-82
2022/09/23 14:23:16;;;;;;;0.20;0.20;;;;;;;17.45;47.57;100918.91;5157349;28;20108;-82
2022/09/23 14:25:47;;;;;;;0.20;0.20;;;;;;;17.42;47.84;100907.63;5147724;28;20561;-84
2022/09/23 14:28:21;;;;;;;0.20;0.20;;;;;;;17.40;48.40;100913.00;5122347;28;20034;-83
2022/09/23 14:30:56;;;;;;;0.20;0.20;;;;;;;17.37;48.12;100913.16;5094612;28;20038;-83
2022/09/23 14:33:31;;;;;;;0.20;0.20;;;;;;;17.41;48.17;100905.91;5135951;28;20553;-81
2022/09/23 14:38:49;;;;;;;0.40;0.40;;;;;;;17.45;48.42;100908.31;5122498;28;20030;-81
2022/09/23 14:39:10;;;;;;;0.20;0.20;;;;;;;17.38;47.80;100906.06;5145845;28;20030;-85
2022/09/23 14:41:43;;;;;;;0.80;0.80;;;;;;;17.40;48.41;100904.19;5138132;28;20042;-83
2022/09/23 14:44:20;;;;;;;;;;;;;;;17.34;47.81;100901.84;5127231;28;20493;-83
2022/09/23 14:46:56;;;;;;;18.55;2.22;;;;;;;17.26;47.49;100897.81;5145331;28;19918;-82
2022/09/23 14:49:26;;;;;;;0.32;0.32;;;;;;;17.27;47.88;100898.69;5143056;28;20053;-82
2022/09/23 14:52:00;;;;;;;0.20;0.20;;;;;;;17.30;48.36;100894.09;5141160;28;20138;-81
2022/09/23 14:54:43;;;;;;;9.02;1.33;;;;;;;17.35;48.12;100895.63;5126254;28;20259;-81
2022/09/23 14:57:22;;;;;;;0.20;0.20;;;;;;;17.27;47.60;100888.94;5159701;28;20328;-82
2022/09/23 14:59:55;;;;;;;0.30;0.30;;;;;;;17.29;48.01;100895.03;5074582;28;20046;-80
2022/09/23 15:02:32;;;;;;;1.42;1.33;;;;;;;17.29;48.73;100886.19;5113452;28;20045;-80
2022/09/23 15:05:09;;;;;;;0.30;0.30;;;;;;;17.26;48.97;100891.69;5112099;28;20042;-82
2022/09/23 15:07:40;;;;;;;0.20;0.20;;;;;;;17.27;49.11;100882.78;5111921;28;20082;-81
2022/09/23 15:10:31;;;;;;;1.75;0.45;;;;;;;17.22;48.99;100877.72;5115299;28;20124;-83
2022/09/23 15:13:07;;;;;;;0.30;0.30;;;;;;;17.25;48.73;100877.53;5123900;28;20065;-83
2022/09/23 15:15:38;;;;;;;0.20;0.20;;;;;;;17.25;49.69;100872.25;5148789;28;20042;-84
2022/09/23 15:18:21;;;;;;;0.17;0.17;;;;;;;17.25;49.43;100874.03;5113547;28;20046;-80
2022/09/23 15:20:54;;;;;;;0.95;0.73;;;;;;;17.30;49.85;100878.16;5150777;28;20053;-80
2022/09/23 15:23:46;;;;;;;0.20;0.20;;;;;;;17.30;49.87;100877.28;5131627;28;20135;-83
2022/09/23 15:26:40;;;;;;;0.55;0.55;;;;;;;17.29;49.91;100870.28;5165084;28;20038;-80
2022/09/23 15:29:10;;;;;;;0.40;0.40;;;;;;;17.29;50.09;100871.16;5135538;28;20046;-80
2022/09/23 15:31:45;;;;;;;0.20;0.20;;;;;;;17.25;49.87;100872.25;5132053;28;20058;-80
2022/09/23 15:34:17;;;;;;;0.10;0.10;;;;;;;17.22;49.96;100867.13;5107813;28;20065;-83
2022/09/23 15:36:48;;;;;;;0.20;0.20;;;;;;;17.24;49.93;100872.31;5112217;28;20030;-79
2022/09/23 15:39:19;;;;;;;0.20;0.20;;;;;;;17.27;50.17;100865.06;5124715;28;20504;-79
2022/09/23 15:41:49;;;;;;;0.25;0.25;;;;;;;17.28;50.21;100872.09;5160332;28;20038;-81
2022/09/23 15:44:27;;;;;;;0.40;0.40;;;;;;;17.25;50.04;100860.78;5112715;28;20534;-82
2022/09/23 15:47:00;;;;;;;0.20;0.20;;;;;;;17.27;50.20;100869.53;5120790;28;20073;-82
2022/09/23 15:49:34;;;;;;;0.20;0.20;;;;;;;17.22;50.36;100867.13;5144374;28;20431;-80
2022/09/23 15:52:08;;;;;;;0.20;0.20;;;;;;;17.25;50.88;100868.75;5121544;28;20125;-80
2022/09/23 15:54:38;;;;;;;0.95;0.95;;;;;;;17.27;50.76;100872.19;5128676;28;20169;-80
2022/09/23 15:57:10;;;;;;;0.30;0.30;;;;;;;17.25;50.78;100871.41;5129044;28;20402;-80
2022/09/23 15:59:40;;;;;;;0.70;0.70;;;;;;;17.20;51.34;100874.28;5120962;28;20045;-81
2022/09/23 16:02:21;;;;;;;0.30;0.30;;;;;;;17.20;51.25;100874.28;5109314;28;20030;-83
2022/09/23 16:04:52;;;;;;;0.45;0.45;;;;;;;17.22;51.51;100874.19;5125235;28;20505;-83
2022/09/23 16:07:23;;;;;;;3.40;0.50;;;;;;;17.25;51.69;100880.19;5124850;28;20050;-80
2022/09/23 16:09:53;;;;;;;0.43;0.43;;;;;;;17.28;51.55;100874.75;5132496;28;20034;-87
2022/09/23 16:12:24;;;;;;;0.75;0.75;;;;;;;17.34;51.49;100867.38;5113715;28;20042;-84
2022/09/23 16:14:54;;;;;;;0.35;0.35;;;;;;;17.26;51.95;100873.97;5116387;28;20416;-81
2022/09/23 16:17:27;;;;;;;1.35;1.10;;;;;;;17.31;51.77;100871.06;5130724;28;20043;-82
2022/09/23 16:19:57;;;;;;;0.23;0.23;;;;;;;17.24;51.91;100867.03;5112409;28;20034;-86
2022/09/23 16:22:28;;;;;;;0.85;0.85;;;;;;;17.23;52.08;100867.97;5116834;28;20088;-84
2022/09/23 16:24:58;;;;;;;4.07;1.65;;;;;;;17.27;51.86;100866.88;5117910;28;20580;-84
2022/09/23 16:27:29;;;;;;;0.20;0.20;;;;;;;17.21;51.96;100870.69;5127665;28;20038;-81
2022/09/23 16:29:59;;;;;;;1.08;0.90;;;;;;;17.21;52.05;100870.69;5113294;28;20050;-82
2022/09/23 16:32:30;;;;;;;0.30;0.30;;;;;;;17.19;51.73;100879.69;5125524;28;20070;-82
2022/09/23 16:35:00;;;;;;;0.20;0.20;;;;;;;17.17;52.09;100879.75;5129698;28;20619;-84
2022/09/23 16:37:31;;;;;;;4.47;1.75;;;;;;;17.26;52.09;100875.75;5118349;28;20088;-84
2022/09/23 16:40:02;;;;;;;0.30;0.30;;;;;;;17.20;52.60;100873.41;5140781;28;20536;-81
2022/09/23 16:42:33;;;;;;;0.57;0.57;;;;;;;17.16;52.73;100875.38;5125866;28;20437;-81
2022/09/23 16:45:04;;;;;;;0.20;0.20;;;;;;;17.12;52.85;100869.38;5147676;28;20042;-81
2022/09/23 16:47:43;;;;;;;0.28;0.28;;;;;;;17.11;53.04;100869.47;5151650;28;20484;-80
2022/09/23 16:50:16;;;;;;;0.93;0.70;;;;;;;17.14;52.87;100867.50;5124850;28;20049;-80
2022/09/23 16:52:47;;;;;;;;;;;;;;;17.10;53.09;100868.63;5131382;28;20042;-80
2022/09/23 16:55:17;;;;;;;0.38;0.38;;;;;;;17.09;52.96;100871.31;5129344;28;19914;-82
2022/09/23 16:57:48;;;;;;;2.05;1.20;;;;;;;17.09;53.19;100873.97;5163764;28;20034;-81
2022/09/23 17:06:02;;;;;;;0.40;0.40;;;;;;;17.05;53.91;100862.69;5137131;28;20051;-82
2022/09/23 17:08:33;;;;;;;0.90;0.85;;;;;;;17.03;53.91;100867.19;5142825;28;20046;-80
2022/09/23 17:11:04;;;;;;;0.57;0.57;;;;;;;17.05;54.24;100867.97;5123875;28;20046;-81
2022/09/23 17:13:34;;;;;;;1.58;0.70;;;;;;;17.06;54.23;100871.50;5121320;28;20066;-80
2022/09/23 17:16:05;;;;;;;0.73;0.73;;;;;;;17.05;54.10;100867.13;5119945;28;20084;-80
2022/09/23 17:18:37;;;;;;;0.20;0.20;;;;;;;17.01;54.48;100853.19;5144399;28;20141;-82
2022/09/23 17:21:08;;;;;;;2.30;1.30;;;;;;;17.01;54.26;100844.38;5126600;28;20038;-81
2022/09/23 17:23:38;;;;;;;0.32;0.32;;;;;;;17.05;54.18;100848.59;5147147;28;20331;-82
2022/09/23 17:26:11;;;;;;;1.25;1.15;;;;;;;17.01;54.43;100847.00;5121360;28;20038;-81
2022/09/23 17:28:41;;;;;;;2.08;0.45;;;;;;;16.98;54.57;100851.53;5138372;28;20444;-84
2022/09/23 17:31:12;;;;;;;3.00;1.05;;;;;;;16.96;54.68;100848.13;5173487;28;20053;-82
2022/09/23 17:33:43;;;;;;;1.05;0.95;;;;;;;16.92;54.81;100851.81;5129906;28;20058;-81
2022/09/23 17:36:14;;;;;;;4.30;0.93;;;;;;;16.90;54.84;100850.19;5136070;28;20037;-80
2022/09/23 17:38:46;;;;;;;1.17;1.10;;;;;;;16.86;54.83;100857.44;5155662;28;20061;-82
2022/09/23 17:41:16;;;;;;;0.90;0.90;;;;;;;16.82;55.48;100855.88;5118568;28;20066;-83
2022/09/23 17:43:53;;;;;;;1.15;0.68;;;;;;;16.82;55.25;100853.22;5121799;28;20118;-83
2022/09/23 17:46:23;;;;;;;0.30;0.30;;;;;;;16.83;55.04;100845.22;5125899;28;21036;-81
2022/09/23 17:48:54;;;;;;;0.65;0.65;;;;;;;16.84;54.86;100844.28;5109960;28;20058;-80
2022/09/23 17:51:24;;;;;;;0.68;0.65;;;;;;;16.82;54.79;100845.28;5127870;28;20038;-80
2022/09/23 17:53:55;;;;;;;0.40;0.40;;;;;;;16.81;54.72;100840.94;5121765;28;20058;-83
2022/09/23 17:56:29;;;;;;;1.42;0.98;;;;;;;16.77;55.39;100844.66;5118405;28;20492;-82
2022/09/23 17:59:01;;;;;;;5.63;1.98;;;;;;;16.77;55.34;100839.38;5106667;28;20327;-84
2022/09/23 18:01:32;;;;;;;0.70;0.70;;;;;;;16.72;55.19;100836.09;5131319;28;20093;-83
2022/09/23 18:04:04;;;;;;;1.10;1.00;;;;;;;16.68;55.58;100843.34;5116722;28;20050;-84
2022/09/23 18:06:36;;;;;;;0.30;0.30;;;;;;;16.68;55.56;100843.34;5115231;28;20080;-83
2022/09/23 18:09:07;;;;;;;1.02;0.70;;;;;;;16.64;55.72;100845.31;5128644;28;20193;-80
2022/09/23 18:11:40;;;;;;;0.40;0.40;;;;;;;16.61;55.93;100842.81;5126809;28;20038;-82
2022/09/23 18:14:13;;;;;;;0.52;0.52;;;;;;;16.61;55.75;100841.97;5133056;28;20516;-81
2022/09/23 18:16:46;;;;;;;0.60;0.60;;;;;;;16.62;55.85;100841.88;5107605;28;20031;-83
2022/09/23 18:19:17;;;;;;;;;;;;;;;16.58;55.85;100831.50;5136348;28;20057;-82
2022/09/23 18:21:51;;;;;;;34.13;3.22;;;;;;;16.58;55.78;100835.00;5148131;28;19917;-84
2022/09/23 18:24:22;;;;;;;0.32;0.32;;;;;;;16.55;55.91;100840.47;5113294;28;20413;-82
2022/09/23 18:26:56;;;;;;;0.40;0.40;;;;;;;16.55;55.93;100844.91;5114958;28;20346;-82
2022/09/23 18:29:26;;;;;;;0.75;0.75;;;;;;;16.55;55.71;100840.47;5126274;28;20100;-82
2022/09/23 18:31:58;;;;;;;0.75;0.75;;;;;;;16.48;56.38;100847.00;5126954;28;20505;-84
2022/09/23 18:34:28;;;;;;;0.40;0.40;;;;;;;16.46;56.49;100847.06;5129205;28;20069;-82
2022/09/23 18:36:59;;;;;;;0.45;0.45;;;;;;;16.44;56.67;100856.91;5139894;28;20030;-83
2022/09/23 18:39:29;;;;;;;0.60;0.60;;;;;;;16.41;56.47;100861.47;5133591;28;20054;-82
2022/09/23 18:42:02;;;;;;;0.88;0.88;;;;;;;16.40;56.43;100860.63;5172641;28;20242;-81
2022/09/23 18:44:33;;;;;;;0.63;0.50;;;;;;;16.37;56.65;100863.41;5132335;28;20049;-83
2022/09/23 18:47:03;;;;;;;0.35;0.35;;;;;;;16.35;56.54;100863.50;5166913;28;20128;-81
2022/09/23 18:52:25;;;;;;;0.40;0.40;;;;;;;16.31;56.63;100867.25;5131023;28;20054;-85
2022/09/23 18:54:59;;;;;;;0.57;0.57;;;;;;;16.31;56.55;100861.94;5157311;28;20046;-84
2022/09/23 18:57:30;;;;;;;0.75;0.75;;;;;;;16.32;56.53;100862.78;5112028;28;20065;-80
2022/09/23 19:00:00;;;;;;;0.38;0.38;;;;;;;16.30;56.57;100862.88;5124974;28;20038;-84
2022/09/23 19:02:32;;;;;;;0.40;0.40;;;;;;;16.25;56.91;100864.03;5139076;28;20030;-81
2022/09/23 19:05:02;;;;;;;2.58;1.02;;;;;;;16.24;56.83;100862.31;5141321;28;20560;-81
2022/09/23 19:07:33;;;;;;;1.15;1.10;;;;;;;16.21;56.90;100863.31;5145351;28;20061;-81
2022/09/23 19:10:04;;;;;;;3.33;1.35;;;;;;;16.22;57.03;100870.31;5145102;28;20508;-83
2022/09/23 19:12:35;;;;;;;0.30;0.30;;;;;;;16.20;56.43;100867.72;5141017;28;20018;-88
2022/09/23 19:15:07;;;;;;;1.85;0.98;;;;;;;16.20;56.88;100866.88;5149874;28;20042;-88
2022/09/23 19:17:37;;;;;;;0.20;0.20;;;;;;;16.19;56.84;100865.16;5130257;28;20057;-85
2022/09/23 19:20:09;;;;;;;0.20;0.20;;;;;;;16.17;56.94;100864.38;5125874;28;20137;-83
2022/09/23 19:22:46;;;;;;;1.35;0.65;;;;;;;16.18;56.94;100863.44;5135793;28;20060;-80
2022/09/23 19:25:16;;;;;;;0.52;0.52;;;;;;;16.17;57.03;100859.09;5129823;28;20054;-80
2022/09/23 19:27:47;;;;;;;8.23;1.50;;;;;;;16.16;57.13;100865.31;5118512;28;20044;-83
2022/09/23 19:30:18;;;;;;;0.60;0.60;;;;;;;16.16;57.27;100862.66;5122127;28;20070;-82
2022/09/23 19:32:48;;;;;;;1.20;1.10;;;;;;;16.14;57.21;100859.25;5110657;28;20339;-81
2022/09/23 19:35:19;;;;;;;0.32;0.32;;;;;;;16.12;57.03;100850.53;5131243;28;20556;-82
2022/09/23 19:37:49;;;;;;;17.73;2.25;;;;;;;16.11;57.14;100854.09;5124802;28;20042;-83
2022/09/23 19:40:20;;;;;;;0.77;0.77;;;;;;;16.09;57.31;100855.94;5139323;28;20532;-85
2022/09/23 19:42:52;;;;;;;0.63;0.63;;;;;;;16.09;57.23;100848.00;5143758;28;20431;-84
2022/09/23 19:45:23;;;;;;;1.45;0.70;;;;;;;16.09;57.22;100834.78;5132874;28;20068;-80
2022/09/23 19:47:55;;;;;;;1.02;1.00;;;;;;;16.07;57.53;100836.66;5136658;28;20121;-82
2022/09/23 19:50:33;;;;;;;0.30;0.30;;;;;;;16.05;57.58;100828.78;5129620;28;20069;-80
2022/09/23 19:53:04;;;;;;;0.80;0.80;;;;;;;16.07;56.98;100832.22;5118800;28;20045;-81
2022/09/23 19:55:36;;;;;;;1.05;1.05;;;;;;;16.05;57.42;100834.94;5133158;28;20038;-81
2022/09/23 19:58:10;;;;;;;1.20;1.00;;;;;;;15.99;57.74;100829.94;5136855;28;20121;-84
2022/09/23 20:00:41;;;;;;;1.92;1.30;;;;;;;16.00;57.55;100836.09;5117712;28;20034;-83
2022/09/23 20:03:11;;;;;;;1.08;1.02;;;;;;;15.98;57.54;100828.25;5168813;28;20045;-82
2022/09/23 20:05:42;;;;;;;0.82;0.82;;;;;;;15.99;57.72;100829.09;5130884;28;20046;-82
2022/09/23 20:08:13;;;;;;;0.50;0.50;;;;;;;15.94;57.78;100828.47;5136605;28;20117;-80
2022/09/23 20:10:45;;;;;;;0.45;0.45;;;;;;;15.94;57.73;100826.66;5151307;28;20050;-81
2022/09/23 20:13:18;;;;;;;1.55;1.45;;;;;;;15.92;57.88;100828.50;5134996;28;20209;-86
2022/09/23 20:15:49;;;;;;;0.50;0.50;;;;;;;15.90;58.14;100825.09;5106173;28;20050;-84
2022/09/23 20:18:20;;;;;;;0.50;0.50;;;;;;;15.86;58.34;100829.69;5113014;28;20109;-82
2022/09/23 20:20:54;;;;;;;0.55;0.55;;;;;;;15.82;58.75;100825.41;5116256;28;20514;-83
2022/09/23 20:23:24;;;;;;;2.03;0.85;;;;;;;15.82;58.36;100821.94;5128172;28;20050;-82
2022/09/23 20:28:45;;;;;;;0.65;0.65;;;;;;;15.84;58.36;100833.31;5165584;28;20073;-85
2022/09/23 20:31:19;;;;;;;1.48;0.90;;;;;;;15.81;58.25;100825.50;5122791;28;20047;-80
2022/09/23 20:33:50;;;;;;;0.60;0.60;;;;;;;15.79;58.61;100825.56;5142084;28;20062;-81
2022/09/23 20:36:21;;;;;;;0.75;0.75;;;;;;;15.81;58.31;100821.06;5139132;28;20568;-84
2022/09/23 20:38:56;;;;;;;0.32;0.32;;;;;;;15.79;58.32;100817.63;5112303;28;20054;-81
2022/09/23 20:41:32;;;;;;;0.75;0.75;;;;;;;15.78;58.50;100817.69;5148172;28;20090;-81
2022/09/23 20:44:12;;;;;;;5.47;0.75;;;;;;;15.77;58.50;100823.91;5144023;28;20116;-83
2022/09/23 20:46:46;;;;;;;9.85;2.58;;;;;;;15.78;58.66;100817.69;5115004;28;20045;-84
2022/09/23 20:49:17;;;;;;;1.40;1.30;;;;;;;15.76;58.63;100811.63;5137902;28;20046;-82
2022/09/23 20:51:48;;;;;;;0.68;0.68;;;;;;;15.76;58.48;100816.91;5128522;28;20039;-83
2022/09/23 20:54:18;;;;;;;0.98;0.93;;;;;;;15.77;58.48;100810.69;5125205;28;20050;-84
2022/09/23 20:56:49;;;;;;;1.83;1.30;;;;;;;15.72;59.08;100809.13;5145814;28;20206;-86
2022/09/23 20:59:20;;;;;;;0.68;0.68;;;;;;;15.77;58.42;100810.69;5150322;28;20057;-83
2022/09/23 21:01:54;;;;;;;0.82;0.82;;;;;;;15.77;58.58;100810.69;5165277;28;20145;-83
2022/09/23 21:04:25;;;;;;;0.80;0.80;;;;;;;15.74;58.55;100807.25;5127293;28;20042;-81
2022/09/23 21:06:57;;;;;;;0.85;0.85;;;;;;;15.72;58.54;100809.13;5126162;28;20958;-83
2022/09/23 21:09:31;;;;;;;2.60;1.50;;;;;;;15.70;58.78;100810.16;5122009;28;20059;-84
2022/09/23 21:12:04;;;;;;;0.85;0.85;;;;;;;15.71;58.92;100807.41;5120859;28;20519;-85
2022/09/23 21:14:35;;;;;;;1.45;1.35;;;;;;;15.71;58.71;100799.47;5122902;28;20046;-83
2022/09/23 21:17:06;;;;;;;0.98;0.98;;;;;;;15.72;58.30;100806.50;5120987;28;20045;-82
2022/09/23 21:19:36;;;;;;;2.05;1.45;;;;;;;15.69;58.67;100806.63;5134139;28;20105;-82
2022/09/23 21:22:08;;;;;;;2.67;1.58;;;;;;;15.64;58.90;100803.34;5122715;28;20531;-82
2022/09/23 21:24:38;;;;;;;0.77;0.77;;;;;;;15.65;58.57;100801.56;5132563;28;20452;-83
2022/09/23 21:27:09;;;;;;;1.38;1.02;;;;;;;15.65;58.75;100805.06;5145980;28;20140;-82
2022/09/23 21:29:40;;;;;;;0.77;0.70;;;;;;;15.63;58.79;100803.41;5153482;28;20057;-82
2022/09/23 21:32:10;;;;;;;1.73;0.70;;;;;;;15.62;59.08;100801.72;5148156;28;20034;-82
2022/09/23 21:34:41;;;;;;;0.82;0.82;;;;;;;15.58;59.14;100799.19;5114480;28;20195;-82
2022/09/23 21:37:12;;;;;;;2.33;0.88;;;;;;;15.53;59.43;100805.63;5127768;28;20038;-83
2022/09/23 21:40:54;;;;;;;5.40;1.73;;;;;;;15.54;59.15;100805.53;5124648;28;20053;-82
2022/09/23 21:42:33;;;;;;;0.43;0.43;;;;;;;15.53;59.25;100811.78;5164752;28;20030;-83
2022/09/23 21:45:03;;;;;;;0.77;0.77;;;;;;;15.55;58.85;100803.78;5139878;28;20081;-82
2022/09/23 21:47:34;;;;;;;0.55;0.55;;;;;;;15.51;59.16;100802.19;5134253;28;20039;-83
2022/09/23 21:50:05;;;;;;;1.15;1.13;;;;;;;15.49;59.14;100798.78;5161671;28;20049;-84
2022/09/23 21:52:37;;;;;;;1.08;0.93;;;;;;;15.48;59.32;100805.00;5139917;28;20162;-82
2022/09/23 21:55:08;;;;;;;1.48;1.42;;;;;;;15.45;59.41;100811.28;5141080;28;20058;-83
2022/09/23 21:57:39;;;;;;;5.97;1.13;;;;;;;15.47;59.61;100814.69;5179176;28;20042;-82
2022/09/23 22:00:10;;;;;;;0.73;0.73;;;;;;;15.38;60.40;100815.13;5165493;28;20076;-83
2022/09/23 22:02:41;;;;;;;0.55;0.55;;;;;;;15.42;59.14;100814.91;5151887;28;20242;-84
2022/09/23 22:05:11;;;;;;;0.95;0.73;;;;;;;15.42;59.53;100820.19;5136726;28;20040;-83
2022/09/23 22:07:42;;;;;;;0.55;0.52;;;;;;;15.42;59.41;100814.91;5131694;28;20078;-83
2022/09/23 22:10:12;;;;;;;0.50;0.50;;;;;;;15.43;59.35;100813.97;5165093;28;20046;-83
2022/09/23 22:12:46;;;;;;;0.70;0.70;;;;;;;15.40;59.75;100815.91;5152819;28;20206;-83
2022/09/23 22:15:18;;;;;;;0.20;0.20;;;;;;;15.41;59.54;100815.81;5138321;28;20061;-83
2022/09/23 22:17:49;;;;;;;0.60;0.60;;;;;;;15.37;59.68;100819.56;5153553;28;20260;-83
2022/09/23 22:20:19;;;;;;;0.88;0.80;;;;;;;15.36;59.50;100814.34;5165565;28;20027;-82
2022/09/23 22:22:50;;;;;;;0.60;0.60;;;;;;;15.37;59.59;100808.97;5153198;28;20037;-82
2022/09/23 22:25:20;;;;;;;1.88;1.27;;;;;;;15.33;59.78;100820.63;5154155;28;20103;-83
2022/09/23 22:33:29;;;;;;;0.35;0.35;;;;;;;15.30;59.86;100810.19;5160408;28;20065;-81
2022/09/23 22:36:03;;;;;;;1.02;1.02;;;;;;;15.33;60.53;100822.41;5145885;28;20030;-82
2022/09/23 22:38:34;;;;;;;1.65;0.98;;;;;;;15.27;59.97;100810.31;5148207;28;20047;-83
2022/09/23 22:41:05;;;;;;;28.33;2.00;;;;;;;15.29;59.95;100815.56;5134927;28;20077;-81
2022/09/23 22:43:36;;;;;;;2.45;0.80;;;;;;;15.28;60.12;100812.03;5160449;28;20054;-83
2022/09/23 22:46:08;;;;;;;1.48;1.38;;;;;;;15.28;59.93;100812.03;5178881;28;20038;-83
2022/09/23 22:48:38;;;;;;;1.02;0.85;;;;;;;15.30;60.03;100817.25;5134384;28;20050;-82
2022/09/23 22:51:09;;;;;;;1.20;1.15;;;;;;;15.28;59.79;100812.03;5170637;28;20076;-82
2022/09/23 22:53:39;;;;;;;3.80;1.63;;;;;;;15.30;59.91;100820.78;5152660;28;20407;-83
2022/09/23 22:56:10;;;;;;;1.52;1.35;;;;;;;15.27;59.89;100815.59;5165132;28;20098;-82
2022/09/23 22:58:40;;;;;;;1.45;1.35;;;;;;;15.24;60.24;100808.69;5163338;28;20038;-82
2022/09/23 23:01:11;;;;;;;1.63;1.05;;;;;;;15.27;60.02;100807.69;5159128;28;20034;-83
2022/09/23 23:03:41;;;;;;;26.15;3.33;;;;;;;15.25;60.17;100798.94;5152625;28;20101;-84
2022/09/23 23:06:12;;;;;;;0.70;0.70;;;;;;;15.22;59.93;100802.59;5173628;28;20065;-83
2022/09/23 23:08:42;;;;;;;1.48;1.30;;;;;;;15.25;59.89;100798.94;5138076;28;20034;-84
2022/09/23 23:11:13;;;;;;;2.33;1.10;;;;;;;15.21;60.22;100789.47;5150886;28;20034;-82